Time;durP1;ratioP1;P1;durP2;ratioP2;P2;SDS_P1;SDS_P2;PMS_P1;PMS_P2;Temp;Humidity;BMP_temperature;BMP_pressure;BME280_temperature;BME280_humidity;BME280_pressure;Samples;Min_cycle;Max_cycle;Signal;HPM_P1;HPM_P2
2022/07/07 00:00:15;;;;;;;2.27;2.00;;;;;;;23.01;43.05;100198.91;4142366;28;20291;-69
2022/07/07 00:02:17;;;;;;;4.03;2.20;;;;;;;23.49;42.21;100208.00;4141875;28;20234;-69
2022/07/07 00:04:19;;;;;;;3.53;1.97;;;;;;;23.55;42.01;100210.63;4140527;28;20229;-68
2022/07/07 00:06:20;;;;;;;2.27;1.80;;;;;;;22.93;43.50;100210.06;4139203;28;20311;-68
2022/07/07 00:08:22;;;;;;;5.83;1.87;;;;;;;23.15;43.00;100208.50;4139055;28;20287;-69
2022/07/07 00:10:24;;;;;;;2.33;2.00;;;;;;;20.67;47.07;100219.91;4143429;28;20267;-70
2022/07/07 00:12:26;;;;;;;4.80;1.90;;;;;;;22.19;45.20;100161.38;4145564;28;20245;-69
2022/07/07 00:14:28;;;;;;;3.77;1.77;;;;;;;21.71;46.03;100182.69;4144492;28;20229;-69
2022/07/07 00:16:29;;;;;;;4.07;2.10;;;;;;;22.15;45.29;100169.09;4144385;28;20245;-69
2022/07/07 00:18:31;;;;;;;2.57;2.00;;;;;;;22.69;44.57;100155.72;4144792;28;20290;-69
2022/07/07 00:20:33;;;;;;;4.70;2.00;;;;;;;22.27;45.02;100172.72;4143326;28;20761;-68
2022/07/07 00:22:35;;;;;;;7.07;1.80;;;;;;;22.79;44.43;100161.44;4139910;28;20792;-68
2022/07/07 00:24:36;;;;;;;4.57;2.00;;;;;;;22.45;44.36;100166.47;4142687;28;20245;-68
2022/07/07 00:26:38;;;;;;;4.70;1.80;;;;;;;22.22;44.99;100171.72;4143762;28;20306;-69
2022/07/07 00:28:40;;;;;;;4.83;2.00;;;;;;;22.67;43.93;100147.00;4145269;28;20261;-70
2022/07/07 00:30:42;;;;;;;6.07;2.20;;;;;;;22.73;44.01;100154.22;4145172;28;20241;-68
2022/07/07 00:32:44;;;;;;;4.97;1.90;;;;;;;22.17;44.51;100174.28;4144474;28;20292;-69
2022/07/07 00:34:45;;;;;;;5.23;1.83;;;;;;;21.77;45.08;100169.31;4144135;28;20300;-68
2022/07/07 00:36:47;;;;;;;4.40;1.90;;;;;;;22.16;44.66;100167.22;4129250;28;20307;-69
2022/07/07 00:38:49;;;;;;;4.00;1.90;;;;;;;22.76;43.35;100171.91;4144614;28;20236;-70
2022/07/07 00:40:52;;;;;;;3.53;1.63;;;;;;;22.24;44.49;100169.63;4144840;28;20237;-68
2022/07/07 00:42:55;;;;;;;5.00;1.80;;;;;;;21.66;45.91;100179.81;4144281;28;20244;-69
2022/07/07 00:44:56;;;;;;;4.20;2.03;;;;;;;21.20;47.31;100163.91;4143215;28;20705;-69
2022/07/07 00:46:58;;;;;;;2.50;1.70;;;;;;;21.84;46.38;100157.34;4143069;28;20264;-68
2022/07/07 00:49:00;;;;;;;2.03;1.80;;;;;;;22.16;45.70;100138.25;4134395;28;20245;-69
2022/07/07 00:51:04;;;;;;;4.60;1.70;;;;;;;21.82;46.64;100145.09;4135005;28;20926;-69
2022/07/07 00:53:06;;;;;;;3.10;1.90;;;;;;;22.19;46.00;100140.50;4139676;28;20653;-69
2022/07/07 00:55:08;;;;;;;2.93;1.63;;;;;;;21.69;46.82;100156.88;4143018;28;20264;-68
2022/07/07 00:57:10;;;;;;;3.10;1.60;;;;;;;21.70;46.55;100140.41;4145304;28;20226;-70
2022/07/07 00:59:29;;;;;;;3.60;1.93;;;;;;;21.78;46.51;100141.16;4144587;28;20229;-69
2022/07/07 01:01:39;;;;;;;3.00;1.70;;;;;;;21.92;46.56;100131.88;4143371;28;20229;-69
2022/07/07 01:03:41;;;;;;;5.73;2.00;;;;;;;21.24;47.87;100141.63;4144279;28;20718;-69
2022/07/07 01:05:46;;;;;;;3.63;1.90;;;;;;;21.48;47.59;100139.16;4143832;28;20237;-68
2022/07/07 01:07:51;;;;;;;2.50;1.60;;;;;;;21.35;47.54;100140.91;4137939;28;20237;-69
2022/07/07 01:09:54;;;;;;;2.93;1.90;;;;;;;21.39;47.49;100132.34;4144574;28;20244;-69
2022/07/07 01:11:57;;;;;;;2.83;1.77;;;;;;;21.53;47.32;100121.19;4143961;28;20291;-69
2022/07/07 01:13:59;;;;;;;1.70;1.60;;;;;;;21.19;47.82;100141.44;4143982;28;20251;-69
2022/07/07 01:16:01;;;;;;;4.10;1.70;;;;;;;21.91;46.56;100127.50;4143670;28;20461;-69
2022/07/07 01:18:04;;;;;;;4.60;1.70;;;;;;;22.37;45.78;100137.00;4143826;28;20233;-69
2022/07/07 01:20:08;;;;;;;2.97;1.90;;;;;;;21.69;47.11;100146.03;4142836;28;20258;-70
2022/07/07 01:22:15;;;;;;;5.77;2.27;;;;;;;22.15;46.43;100119.53;4142282;28;20682;-69
2022/07/07 01:24:17;;;;;;;1.87;1.47;;;;;;;21.13;48.08;100118.81;4138649;28;20259;-69
2022/07/07 01:26:19;;;;;;;2.80;1.70;;;;;;;22.13;46.24;100121.63;4143759;28;20233;-69
2022/07/07 01:28:20;;;;;;;4.03;1.80;;;;;;;22.32;46.18;100123.31;4144119;28;20229;-69
2022/07/07 01:30:22;;;;;;;6.23;2.00;;;;;;;22.20;46.05;100152.16;4143741;28;20230;-69
2022/07/07 01:32:25;;;;;;;2.87;1.60;;;;;;;21.98;46.48;100135.53;4144510;28;20206;-68
2022/07/07 01:34:27;;;;;;;2.37;2.03;;;;;;;22.33;45.63;100130.38;4135241;28;20237;-69
2022/07/07 01:36:29;;;;;;;3.40;1.70;;;;;;;21.83;46.51;100152.16;4142461;28;20233;-69
2022/07/07 01:38:30;;;;;;;3.37;1.93;;;;;;;21.72;46.90;100146.44;4144377;28;21054;-70
2022/07/07 01:40:32;;;;;;;3.70;1.90;;;;;;;21.31;47.64;100155.94;4140830;28;20237;-68
2022/07/07 01:42:34;;;;;;;4.93;2.40;;;;;;;21.84;46.88;100138.41;4142797;28;21061;-68
2022/07/07 01:44:37;;;;;;;3.53;1.80;;;;;;;21.54;47.48;100155.31;4142608;28;20513;-69
2022/07/07 01:46:39;;;;;;;2.57;1.93;;;;;;;21.91;46.82;100139.13;4136861;28;20237;-69
2022/07/07 01:48:41;;;;;;;5.23;2.20;;;;;;;22.04;46.49;100151.72;4134732;28;20245;-69
2022/07/07 01:50:42;;;;;;;4.10;1.90;;;;;;;21.83;46.38;100160.28;4134030;28;20391;-69
2022/07/07 01:52:44;;;;;;;3.17;1.73;;;;;;;21.57;46.94;100158.63;4135352;28;20238;-68
2022/07/07 01:54:46;;;;;;;3.97;2.10;;;;;;;20.98;48.40;100173.19;4143020;28;20233;-68
2022/07/07 01:56:48;;;;;;;4.03;2.03;;;;;;;21.60;46.93;100150.06;4143016;28;20236;-69
2022/07/07 01:58:50;;;;;;;6.03;2.40;;;;;;;21.88;46.62;100146.88;4142978;28;20233;-69
2022/07/07 02:00:51;;;;;;;3.73;2.67;;;;;;;22.20;46.25;100142.19;4143585;28;20303;-69
2022/07/07 02:02:53;;;;;;;3.47;2.07;;;;;;;21.04;48.44;100149.03;4143059;28;20244;-69
2022/07/07 02:04:55;;;;;;;2.67;2.00;;;;;;;21.81;46.77;100129.91;4142597;28;20264;-68
2022/07/07 02:06:57;;;;;;;4.03;2.20;;;;;;;21.45;47.55;100155.81;4137410;28;20269;-70
2022/07/07 02:09:01;;;;;;;5.80;2.47;;;;;;;20.92;48.62;100151.59;4143677;28;20225;-69
2022/07/07 02:11:12;;;;;;;5.43;2.20;;;;;;;20.32;49.85;100133.00;4142925;28;20303;-69
2022/07/07 02:13:14;;;;;;;4.67;2.73;;;;;;;21.18;48.06;100127.09;4143516;28;20299;-69
2022/07/07 02:15:15;;;;;;;2.93;2.33;;;;;;;21.47;47.66;100124.78;4142016;28;20229;-68
2022/07/07 02:17:17;;;;;;;2.60;2.23;;;;;;;21.55;46.93;100143.44;4142489;28;20295;-69
2022/07/07 02:19:19;;;;;;;2.47;2.00;;;;;;;21.58;47.18;100138.63;4143247;28;20225;-69
2022/07/07 02:21:21;;;;;;;3.83;2.40;;;;;;;22.13;46.02;100140.59;4142377;28;20698;-69
2022/07/07 02:23:23;;;;;;;6.53;2.47;;;;;;;21.87;46.44;100154.19;4136277;28;20259;-69
2022/07/07 02:25:25;;;;;;;3.60;2.43;;;;;;;22.25;45.27;100164.00;4142199;28;20276;-69
2022/07/07 02:27:27;;;;;;;3.03;2.23;;;;;;;19.90;49.57;100149.50;4142794;28;20229;-68
2022/07/07 02:29:29;;;;;;;2.30;2.07;;;;;;;20.71;47.79;100140.06;4142099;28;20226;-69
2022/07/07 02:31:31;;;;;;;4.20;2.33;;;;;;;20.70;48.04;100137.59;4135073;28;20654;-69
2022/07/07 02:33:34;;;;;;;2.97;2.30;;;;;;;20.78;47.60;100140.84;4141624;28;20240;-68
2022/07/07 02:35:36;;;;;;;3.40;2.30;;;;;;;20.86;46.92;100137.09;4142146;28;20229;-68
2022/07/07 02:37:37;;;;;;;3.97;2.33;;;;;;;20.26;48.09;100142.78;4142778;28;20312;-68
2022/07/07 02:39:39;;;;;;;3.30;2.30;;;;;;;20.26;46.69;100161.69;4142108;28;20702;-69
2022/07/07 02:41:41;;;;;;;3.40;2.47;;;;;;;20.65;47.17;100121.19;4143290;28;20669;-69
2022/07/07 02:43:42;;;;;;;4.60;2.57;;;;;;;20.68;47.04;100118.06;4142955;28;20237;-69
2022/07/07 02:45:46;;;;;;;3.10;2.37;;;;;;;20.67;46.67;100129.91;4141281;28;20249;-69
2022/07/07 02:47:48;;;;;;;5.60;2.60;;;;;;;20.99;46.26;100130.81;4143443;28;20233;-70
2022/07/07 02:49:49;;;;;;;2.67;2.23;;;;;;;19.76;47.85;100161.34;4126985;28;20745;-69
2022/07/07 02:51:51;;;;;;;3.67;2.17;;;;;;;20.85;46.39;100123.78;4133685;28;20663;-70
2022/07/07 02:53:53;;;;;;;4.97;2.03;;;;;;;19.01;48.82;100162.34;4142269;28;20769;-69
2022/07/07 02:55:54;;;;;;;5.97;2.30;;;;;;;19.24;49.28;100112.63;4141512;28;20776;-69
2022/07/07 02:57:57;;;;;;;3.77;2.93;;;;;;;19.84;47.96;100115.25;4142230;28;20267;-70
2022/07/07 02:59:59;;;;;;;3.97;2.80;;;;;;;20.68;46.50;100110.78;4142856;28;20852;-69
2022/07/07 03:02:00;;;;;;;2.70;2.50;;;;;;;20.76;46.22;100118.63;4141926;28;20248;-69
2022/07/07 03:04:02;;;;;;;5.13;2.90;;;;;;;21.03;45.89;100125.78;4142342;28;20779;-69
2022/07/07 03:06:04;;;;;;;2.80;2.13;;;;;;;21.14;45.61;100138.56;4141573;28;20255;-69
2022/07/07 03:08:06;;;;;;;4.37;2.43;;;;;;;21.25;45.28;100145.97;4137299;28;20237;-69
2022/07/07 03:10:08;;;;;;;3.43;2.40;;;;;;;20.53;46.44;100148.88;4143169;28;20233;-69
2022/07/07 03:12:10;;;;;;;3.37;2.43;;;;;;;20.65;46.58;100154.47;4141759;28;20233;-69
2022/07/07 03:14:12;;;;;;;3.17;2.80;;;;;;;20.73;46.28;100153.38;4141820;28;20237;-69
2022/07/07 03:16:14;;;;;;;4.30;2.70;;;;;;;21.36;45.10;100139.88;4141962;28;20229;-69
2022/07/07 03:18:15;;;;;;;2.77;2.50;;;;;;;21.42;44.76;100143.56;4142780;28;20226;-69
2022/07/07 03:20:18;;;;;;;6.10;2.60;;;;;;;20.69;46.14;100173.78;4141238;28;20253;-69
2022/07/07 03:22:19;;;;;;;5.80;2.80;;;;;;;20.89;45.79;100152.06;4138071;28;20230;-68
2022/07/07 03:24:21;;;;;;;3.87;2.80;;;;;;;20.46;46.57;100167.00;4139428;28;20226;-69
2022/07/07 03:26:23;;;;;;;4.67;2.53;;;;;;;20.38;46.91;100151.88;4139798;28;20225;-69
2022/07/07 03:28:24;;;;;;;3.27;2.97;;;;;;;20.68;46.48;100139.69;4143134;28;20229;-70
2022/07/07 03:30:26;;;;;;;4.10;3.10;;;;;;;19.66;48.24;100157.22;4142510;28;20248;-69
2022/07/07 03:32:28;;;;;;;3.97;2.67;;;;;;;18.75;50.12;100128.91;4142183;28;20720;-69
2022/07/07 03:34:31;;;;;;;4.73;2.50;;;;;;;18.19;51.62;100121.91;4141550;28;20233;-69
2022/07/07 03:36:33;;;;;;;7.17;2.80;;;;;;;18.68;50.28;100128.06;4141520;28;20328;-68
2022/07/07 03:38:34;;;;;;;4.67;3.10;;;;;;;19.69;48.70;100085.84;4142542;28;20606;-69
2022/07/07 03:40:36;;;;;;;4.80;3.10;;;;;;;20.07;48.01;100107.50;4142359;28;20233;-69
2022/07/07 03:42:38;;;;;;;6.10;2.80;;;;;;;19.67;49.10;100121.13;4141923;28;20248;-69
2022/07/07 03:44:40;;;;;;;4.47;2.83;;;;;;;19.55;49.13;100124.66;4142698;28;20244;-70
2022/07/07 03:46:41;;;;;;;4.57;3.30;;;;;;;19.48;49.29;100111.97;4144882;28;20240;-70
2022/07/07 03:48:43;;;;;;;8.07;3.40;;;;;;;19.85;48.55;100106.97;4138211;28;20237;-69
2022/07/07 03:50:45;;;;;;;4.30;3.03;;;;;;;19.42;49.73;100118.22;4135802;28;20239;-70
2022/07/07 03:52:47;;;;;;;5.23;3.30;;;;;;;19.48;49.73;100136.25;4130409;28;20260;-69
2022/07/07 03:54:49;;;;;;;5.63;2.90;;;;;;;20.56;47.51;100110.66;4144404;28;20257;-69
2022/07/07 03:56:51;;;;;;;5.33;2.90;;;;;;;20.44;47.95;100129.41;4145955;28;20714;-69
2022/07/07 03:58:52;;;;;;;5.80;2.90;;;;;;;19.46;49.96;100143.72;4145865;28;20237;-69
2022/07/07 04:00:54;;;;;;;3.77;2.97;;;;;;;19.66;49.58;100124.03;4144696;28;20272;-70
2022/07/07 04:02:56;;;;;;;7.10;3.77;;;;;;;19.78;49.06;100125.03;4144870;28;20317;-69
2022/07/07 04:04:58;;;;;;;6.53;3.23;;;;;;;19.10;51.38;100106.38;4144316;28;20237;-69
2022/07/07 04:06:59;;;;;;;6.30;3.17;;;;;;;19.24;50.81;100115.31;4139206;28;20237;-69
2022/07/07 04:09:01;;;;;;;4.40;2.73;;;;;;;18.77;51.50;100137.59;4145669;28;20316;-68
2022/07/07 04:11:04;;;;;;;4.70;3.03;;;;;;;19.71;49.72;100116.13;4144289;28;20237;-69
2022/07/07 04:13:05;;;;;;;4.83;2.60;;;;;;;20.21;48.48;100119.13;4144453;28;20266;-68
2022/07/07 04:15:08;;;;;;;5.03;2.90;;;;;;;20.20;48.40;100122.84;4144366;28;20339;-69
2022/07/07 04:17:11;;;;;;;5.03;2.83;;;;;;;19.30;50.29;100138.75;4136377;28;20229;-69
2022/07/07 04:19:13;;;;;;;3.10;2.80;;;;;;;18.79;51.31;100123.94;4145501;28;20247;-68
2022/07/07 04:21:14;;;;;;;3.60;2.57;;;;;;;19.19;50.26;100136.69;4144476;28;20229;-69
2022/07/07 04:23:16;;;;;;;4.23;2.47;;;;;;;19.83;49.08;100124.41;4137263;28;20225;-69
2022/07/07 04:25:18;;;;;;;4.07;2.80;;;;;;;19.48;49.79;100113.84;4144400;28;20228;-68
2022/07/07 04:27:20;;;;;;;4.30;2.90;;;;;;;18.23;51.97;100151.94;4144917;28;20237;-69
2022/07/07 04:29:22;;;;;;;4.03;2.30;;;;;;;18.24;52.16;100131.22;4143168;28;20237;-69
2022/07/07 04:31:28;;;;;;;3.93;2.73;;;;;;;18.10;52.12;100149.16;4145084;28;20222;-69
2022/07/07 04:33:29;;;;;;;4.90;2.77;;;;;;;18.25;52.51;100114.88;4144883;28;20253;-69
2022/07/07 04:35:31;;;;;;;4.17;2.77;;;;;;;19.41;49.52;100121.94;4143101;28;20233;-68
2022/07/07 04:37:33;;;;;;;4.83;2.43;;;;;;;18.92;50.83;100136.66;4145384;28;20256;-69
2022/07/07 04:39:35;;;;;;;6.00;3.00;;;;;;;19.33;49.80;100132.94;4144683;28;20237;-69
2022/07/07 04:41:37;;;;;;;3.03;2.50;;;;;;;17.84;51.87;100158.72;4144474;28;20321;-68
2022/07/07 04:43:38;;;;;;;5.33;2.37;;;;;;;18.93;50.51;100128.34;4144515;28;20237;-68
2022/07/07 04:45:40;;;;;;;3.93;2.40;;;;;;;18.55;51.44;100106.50;4143303;28;20249;-69
2022/07/07 04:47:43;;;;;;;5.17;2.73;;;;;;;17.94;52.41;100143.03;4144294;28;20234;-69
2022/07/07 04:49:45;;;;;;;3.33;2.67;;;;;;;19.05;50.29;100119.66;4129314;28;20237;-68
2022/07/07 04:52:08;;;;;;;5.80;3.33;;;;;;;18.61;50.71;100140.69;4134945;28;20238;-70
2022/07/07 04:54:10;;;;;;;4.10;2.87;;;;;;;19.23;49.98;100100.19;4144562;28;20224;-69
2022/07/07 04:56:11;;;;;;;5.73;2.37;;;;;;;18.81;51.05;100105.69;4143152;28;20982;-69
2022/07/07 04:58:13;;;;;;;4.80;2.90;;;;;;;19.37;50.54;100082.97;4139620;28;20226;-69
2022/07/07 05:02:23;;;;;;;4.13;2.67;;;;;;;19.80;49.45;100063.59;4136732;27;20858;-69
2022/07/07 05:04:25;;;;;;;3.27;2.80;;;;;;;20.54;48.18;100074.91;4148653;28;20233;-68
2022/07/07 05:06:27;;;;;;;7.47;2.80;;;;;;;19.87;49.15;100077.88;4171354;28;20267;-68
2022/07/07 05:08:32;;;;;;;4.53;2.57;;;;;;;19.78;49.27;100081.88;4170500;28;20267;-68
2022/07/07 05:10:33;;;;;;;4.97;2.97;;;;;;;19.28;50.55;100082.31;4158987;28;20811;-69
2022/07/07 05:12:35;;;;;;;6.27;2.90;;;;;;;19.03;51.06;100074.06;4156979;28;20228;-69
2022/07/07 05:14:36;;;;;;;5.37;2.60;;;;;;;19.38;50.65;100070.31;4156108;28;20237;-69
2022/07/07 05:16:38;;;;;;;6.80;3.20;;;;;;;19.36;50.48;100067.00;4156732;28;20298;-69
2022/07/07 05:18:40;;;;;;;6.87;3.23;;;;;;;18.98;51.48;100070.31;4157127;28;20247;-69
2022/07/07 05:20:42;;;;;;;5.10;2.90;;;;;;;19.26;50.81;100068.22;4162807;28;20262;-69
2022/07/07 05:22:43;;;;;;;5.63;3.17;;;;;;;17.62;54.27;100085.34;4156337;28;20286;-69
2022/07/07 05:24:45;;;;;;;6.40;2.90;;;;;;;19.13;51.13;100057.47;4156762;28;20659;-69
2022/07/07 05:26:47;;;;;;;5.93;3.20;;;;;;;19.84;49.90;100048.66;4155650;28;20298;-69
2022/07/07 05:28:49;;;;;;;5.73;2.90;;;;;;;19.85;49.46;100076.47;4157141;28;20283;-69
2022/07/07 05:30:50;;;;;;;7.17;3.60;;;;;;;19.59;49.77;100083.59;4156923;28;20232;-67
2022/07/07 05:32:52;;;;;;;5.93;2.97;;;;;;;19.36;50.95;100081.28;4155653;28;20243;-68
2022/07/07 05:34:54;;;;;;;3.27;2.97;;;;;;;19.63;50.32;100081.28;4155616;28;20236;-69
2022/07/07 05:36:56;;;;;;;5.60;3.23;;;;;;;17.65;53.81;100119.91;4157015;28;20237;-69
2022/07/07 05:38:57;;;;;;;5.33;3.00;;;;;;;19.05;51.48;100079.22;4155638;28;20267;-69
2022/07/07 05:41:00;;;;;;;6.87;2.77;;;;;;;19.79;50.13;100078.16;4157367;28;20779;-68
2022/07/07 05:43:03;;;;;;;4.83;2.80;;;;;;;19.67;50.01;100096.84;4156600;28;20245;-69
2022/07/07 05:45:05;;;;;;;3.10;2.60;;;;;;;19.84;49.67;100102.63;4154774;28;20244;-68
2022/07/07 05:47:07;;;;;;;6.00;2.93;;;;;;;19.78;49.71;100094.53;4156202;28;20228;-69
2022/07/07 05:49:08;;;;;;;3.87;3.00;;;;;;;19.41;50.66;100094.16;4156102;28;20758;-69
2022/07/07 05:51:10;;;;;;;6.17;3.17;;;;;;;19.45;50.58;100100.78;4159042;28;20233;-69
2022/07/07 05:53:12;;;;;;;2.63;2.40;;;;;;;19.72;50.17;100095.38;4155771;28;20231;-68
2022/07/07 05:55:13;;;;;;;3.47;2.60;;;;;;;20.68;48.39;100089.16;4155040;28;20232;-69
2022/07/07 05:57:15;;;;;;;4.50;3.00;;;;;;;20.15;49.34;100127.22;4155988;28;20780;-68
2022/07/07 05:59:16;;;;;;;4.93;2.50;;;;;;;19.85;49.51;100117.75;4156378;28;20225;-69
2022/07/07 06:01:18;;;;;;;4.83;2.90;;;;;;;19.52;50.21;100117.78;4155139;28;20233;-69
2022/07/07 06:03:20;;;;;;;5.57;2.67;;;;;;;19.63;50.08;100108.25;4155813;28;20236;-68
2022/07/07 06:05:22;;;;;;;6.33;2.90;;;;;;;19.22;50.96;100125.47;4155494;28;20236;-69
2022/07/07 06:07:25;;;;;;;3.60;2.50;;;;;;;19.96;49.83;100097.41;4155307;28;20232;-70
2022/07/07 06:09:26;;;;;;;4.63;3.07;;;;;;;20.24;49.13;100112.44;4156324;28;20229;-69
2022/07/07 06:11:28;;;;;;;4.97;2.63;;;;;;;20.84;48.33;100087.84;4156125;28;20229;-69
2022/07/07 06:13:30;;;;;;;4.43;2.90;;;;;;;19.66;50.50;100105.16;4145695;28;20237;-68
2022/07/07 06:15:35;;;;;;;3.47;2.30;;;;;;;19.24;51.44;100109.94;4144380;28;20233;-68
2022/07/07 06:17:37;;;;;;;4.50;2.70;;;;;;;19.25;51.50;100115.13;4145089;28;20237;-70
2022/07/07 06:19:59;;;;;;;5.87;2.63;;;;;;;20.61;48.89;100089.22;4144637;28;20256;-69
2022/07/07 06:22:00;;;;;;;7.33;2.67;;;;;;;19.61;50.39;100145.41;4150789;28;20238;-69
2022/07/07 06:24:02;;;;;;;4.17;2.40;;;;;;;20.56;48.79;100110.66;4144455;28;20237;-69
2022/07/07 06:26:04;;;;;;;4.50;2.90;;;;;;;20.49;48.53;100139.56;4144386;28;20788;-68
2022/07/07 06:28:06;;;;;;;3.33;2.50;;;;;;;20.41;48.62;100146.03;4144300;28;20249;-69
2022/07/07 06:30:08;;;;;;;5.97;2.60;;;;;;;20.52;48.61;100128.34;4144292;28;20229;-69
2022/07/07 06:32:10;;;;;;;4.03;2.20;;;;;;;20.30;49.08;100144.03;4144854;28;20233;-69
2022/07/07 06:34:13;;;;;;;5.37;2.80;;;;;;;20.30;48.61;100132.38;4144879;28;20291;-69
2022/07/07 06:36:14;;;;;;;3.83;2.40;;;;;;;20.15;48.63;100143.44;4143052;28;20486;-69
2022/07/07 06:38:16;;;;;;;4.20;3.07;;;;;;;19.72;49.72;100144.75;4144852;28;20237;-69
2022/07/07 06:40:17;;;;;;;5.30;2.67;;;;;;;20.59;47.92;100115.63;4145088;28;20662;-69
2022/07/07 06:42:20;;;;;;;4.27;2.60;;;;;;;21.51;46.72;100111.63;4143790;28;20839;-69
2022/07/07 06:44:21;;;;;;;3.40;2.63;;;;;;;21.62;46.64;100113.59;4144295;28;20225;-69
2022/07/07 06:46:23;;;;;;;2.97;2.37;;;;;;;21.51;46.72;100134.13;4143361;28;20766;-69
2022/07/07 06:48:25;;;;;;;5.77;2.77;;;;;;;21.44;46.68;100132.50;4144449;28;20275;-71
2022/07/07 06:50:27;;;;;;;2.87;2.40;;;;;;;21.18;47.10;100135.22;4158083;28;20237;-68
2022/07/07 06:52:29;;;;;;;4.53;2.40;;;;;;;20.49;48.89;100157.66;4161103;28;20229;-68
2022/07/07 06:54:30;;;;;;;4.93;2.97;;;;;;;20.77;48.14;100136.50;4160324;28;20233;-69
2022/07/07 06:56:32;;;;;;;3.87;2.60;;;;;;;21.29;47.31;100119.31;4159685;28;20286;-69
2022/07/07 06:58:34;;;;;;;3.70;2.57;;;;;;;20.70;48.14;100143.00;4160873;28;20290;-70
2022/07/07 07:00:35;;;;;;;3.50;2.50;;;;;;;21.09;47.33;100133.84;4160254;28;20236;-69
2022/07/07 07:02:42;;;;;;;6.07;2.77;;;;;;;20.75;48.07;100152.13;4159910;28;20295;-69
2022/07/07 07:04:44;;;;;;;4.13;2.40;;;;;;;20.74;47.61;100147.75;4159316;28;20776;-69
2022/07/07 07:06:46;;;;;;;6.13;2.63;;;;;;;20.87;48.12;100136.03;4136561;28;20243;-69
2022/07/07 07:08:48;;;;;;;4.17;2.50;;;;;;;20.97;47.47;100133.72;4144240;28;20249;-68
2022/07/07 07:10:49;;;;;;;4.00;2.40;;;;;;;21.10;47.01;100153.59;4144636;28;20745;-68
2022/07/07 07:12:51;;;;;;;3.57;2.50;;;;;;;21.44;46.66;100132.50;4144392;28;20237;-68
2022/07/07 07:14:53;;;;;;;3.70;2.80;;;;;;;21.12;47.49;100149.63;4143293;28;20241;-70
2022/07/07 07:16:54;;;;;;;5.57;2.77;;;;;;;20.77;48.38;100160.03;4142854;28;20245;-69
2022/07/07 07:18:56;;;;;;;4.20;2.70;;;;;;;20.36;48.63;100172.03;4144104;28;20246;-68
2022/07/07 07:20:58;;;;;;;4.20;2.70;;;;;;;20.87;48.30;100141.44;4151074;28;20725;-68
2022/07/07 07:22:59;;;;;;;4.70;2.77;;;;;;;20.35;48.86;100173.91;4143512;28;20790;-70
2022/07/07 07:25:01;;;;;;;4.20;2.63;;;;;;;20.76;48.39;100148.34;4142567;28;20237;-70
2022/07/07 07:27:03;;;;;;;3.73;2.70;;;;;;;20.78;48.77;100158.97;4144218;28;20241;-69
2022/07/07 07:29:05;;;;;;;5.10;2.50;;;;;;;21.25;48.07;100135.16;4143291;28;20291;-68
2022/07/07 07:31:07;;;;;;;3.37;2.60;;;;;;;21.21;48.05;100133.97;4144271;28;20237;-68
2022/07/07 07:33:09;;;;;;;3.77;2.00;;;;;;;21.21;47.96;100141.22;4142922;28;20279;-69
2022/07/07 07:35:10;;;;;;;4.93;2.33;;;;;;;21.26;48.00;100135.97;4143572;28;20233;-73
2022/07/07 07:37:12;;;;;;;5.50;3.03;;;;;;;21.17;47.69;100154.34;4144041;28;20229;-71
2022/07/07 07:39:14;;;;;;;5.77;3.47;;;;;;;21.62;47.21;100165.03;4143966;28;20292;-74
2022/07/07 07:41:18;;;;;;;6.40;3.53;;;;;;;21.50;48.10;100164.91;4143909;28;20666;-72
2022/07/07 07:43:20;;;;;;;5.33;3.03;;;;;;;21.17;48.24;100181.41;4143974;28;20589;-72
2022/07/07 07:45:21;;;;;;;4.53;3.17;;;;;;;20.87;48.97;100210.88;4141848;28;20299;-73
2022/07/07 07:47:24;;;;;;;4.00;2.70;;;;;;;21.22;48.45;100178.03;4143973;28;20237;-72
2022/07/07 07:49:26;;;;;;;5.63;2.50;;;;;;;20.95;49.35;100187.16;4149271;28;20228;-73
2022/07/07 07:51:27;;;;;;;3.83;2.80;;;;;;;21.30;48.64;100173.19;4158172;28;20224;-72
2022/07/07 07:53:29;;;;;;;9.43;2.70;;;;;;;21.02;48.99;100179.00;4160613;28;20228;-71
2022/07/07 07:55:32;;;;;;;6.90;3.07;;;;;;;21.31;48.34;100168.63;4159309;28;20233;-72
2022/07/07 07:57:34;;;;;;;5.97;2.90;;;;;;;21.50;48.08;100172.22;4158939;28;20231;-71
2022/07/07 07:59:35;;;;;;;3.27;2.97;;;;;;;21.75;47.67;100168.69;4159895;28;20224;-72
2022/07/07 08:01:37;;;;;;;7.67;3.37;;;;;;;21.27;48.59;100192.56;4160300;28;20233;-72
2022/07/07 08:03:39;;;;;;;5.57;2.57;;;;;;;21.06;48.94;100211.88;4159073;28;20260;-72
2022/07/07 08:05:41;;;;;;;4.93;2.80;;;;;;;21.05;49.43;100178.56;4157841;28;20328;-71
2022/07/07 08:07:48;;;;;;;5.13;2.70;;;;;;;21.71;47.97;100168.28;4144800;28;20232;-73
2022/07/07 08:09:50;;;;;;;6.27;3.00;;;;;;;22.17;47.02;100158.88;4142965;28;20229;-73
2022/07/07 08:11:51;;;;;;;8.73;2.90;;;;;;;21.87;47.70;100173.13;4143186;28;20229;-72
2022/07/07 08:13:53;;;;;;;7.37;2.90;;;;;;;21.81;47.67;100184.03;4143217;28;20233;-74
2022/07/07 08:15:55;;;;;;;8.27;2.70;;;;;;;21.76;48.18;100183.88;4142579;28;20238;-72
2022/07/07 08:17:56;;;;;;;7.20;3.03;;;;;;;22.13;47.46;100163.06;4143440;28;20630;-72
2022/07/07 08:19:58;;;;;;;3.87;2.67;;;;;;;21.99;47.58;100183.25;4143258;28;20226;-72
2022/07/07 08:22:00;;;;;;;6.23;3.07;;;;;;;21.46;48.44;100192.63;4149429;28;20779;-73
2022/07/07 08:24:02;;;;;;;3.67;2.43;;;;;;;21.54;49.25;100170.72;4142978;28;20371;-74
2022/07/07 08:26:04;;;;;;;5.90;2.80;;;;;;;21.89;48.37;100152.09;4143819;28;20246;-72
2022/07/07 08:28:07;;;;;;;5.33;3.00;;;;;;;22.19;47.54;100153.22;4148617;28;20237;-72
2022/07/07 08:30:09;;;;;;;5.27;2.90;;;;;;;22.52;47.10;100160.13;4154253;28;20232;-72
2022/07/07 08:32:11;;;;;;;6.10;2.80;;;;;;;21.33;49.53;100172.75;4158386;28;20228;-73
2022/07/07 08:34:13;;;;;;;7.27;3.00;;;;;;;21.26;49.71;100165.72;4157730;28;20710;-73
2022/07/07 08:36:15;;;;;;;5.43;2.53;;;;;;;21.94;48.27;100164.13;4142354;28;20245;-72
2022/07/07 08:38:16;;;;;;;4.40;2.73;;;;;;;22.40;47.59;100150.06;4142719;28;20225;-72
2022/07/07 08:40:18;;;;;;;5.80;2.90;;;;;;;20.49;51.44;100190.06;4143815;28;20278;-72
2022/07/07 08:42:21;;;;;;;4.27;2.93;;;;;;;21.07;50.61;100154.03;4142594;28;20226;-72
2022/07/07 08:44:23;;;;;;;6.73;3.07;;;;;;;21.45;49.72;100139.59;4142483;28;20621;-72
2022/07/07 08:46:25;;;;;;;3.57;2.80;;;;;;;21.17;50.67;100127.31;4142090;28;20237;-73
2022/07/07 08:48:27;;;;;;;7.17;2.93;;;;;;;21.53;50.24;100106.84;4142547;28;20237;-73
2022/07/07 08:50:29;;;;;;;4.90;2.70;;;;;;;20.93;51.44;100113.53;4156169;28;20240;-72
2022/07/07 08:52:31;;;;;;;6.40;2.63;;;;;;;20.04;53.62;100099.88;4158410;28;20236;-71
2022/07/07 08:54:34;;;;;;;7.27;2.80;;;;;;;20.46;52.76;100099.47;4152523;28;20741;-74
2022/07/07 08:56:40;;;;;;;3.83;2.40;;;;;;;21.76;50.51;100076.44;4146756;28;20245;-74
2022/07/07 08:58:42;;;;;;;4.77;2.80;;;;;;;22.00;49.50;100080.13;4145783;28;20296;-73
2022/07/07 09:01:04;;;;;;;5.90;2.80;;;;;;;21.96;49.20;100122.22;4142503;28;20233;-72
2022/07/07 09:03:07;;;;;;;5.83;2.77;;;;;;;21.99;49.79;100124.50;4143076;28;20664;-72
2022/07/07 09:05:09;;;;;;;5.90;2.90;;;;;;;20.98;52.27;100121.84;4142470;28;20279;-72
2022/07/07 09:07:11;;;;;;;6.03;2.70;;;;;;;22.45;50.02;100087.88;4142035;28;20718;-71
2022/07/07 09:09:26;;;;;;;5.57;2.90;;;;;;;21.30;51.77;100129.91;4143161;28;20233;-72
2022/07/07 09:11:33;;;;;;;5.60;3.03;;;;;;;22.33;49.91;100099.75;4142919;28;20291;-74
2022/07/07 09:13:36;;;;;;;7.43;2.92;;;;;;;22.03;49.82;100125.69;4142458;28;20229;-72
2022/07/07 09:15:39;;;;;;;4.60;2.60;;;;;;;23.00;48.56;100108.59;4148970;28;20293;-73
2022/07/07 09:17:41;;;;;;;6.10;2.90;;;;;;;22.83;48.53;100135.53;4156974;28;20236;-72
2022/07/07 09:19:44;;;;;;;2.92;2.65;;;;;;;22.41;49.81;100135.47;4159372;28;20259;-72
2022/07/07 09:21:47;;;;;;;5.70;2.58;;;;;;;22.87;49.20;100125.03;4149935;28;20284;-75
2022/07/07 09:23:53;;;;;;;6.00;3.10;;;;;;;23.02;48.95;100140.91;4141998;28;20245;-74
2022/07/07 09:25:55;;;;;;;4.50;2.63;;;;;;;22.63;49.10;100138.50;4141680;28;20272;-72
2022/07/07 09:28:02;;;;;;;4.55;2.55;;;;;;;22.71;48.72;100156.34;4142138;28;20240;-71
2022/07/07 09:30:04;;;;;;;4.93;2.55;;;;;;;22.84;48.65;100145.31;4141714;28;20751;-72